createdAt,value
2023-01-15T00:01:02.916Z,98399.22
2023-01-15T00:04:23.228Z,98394.09
2023-01-15T00:07:48.500Z,98381.91
2023-01-15T00:11:05.173Z,98384.73
2023-01-15T00:14:21.497Z,98383.47
2023-01-15T00:17:37.703Z,98382.18
2023-01-15T00:20:54.129Z,98374.36
2023-01-15T00:24:24.939Z,98372.27
2023-01-15T00:27:46.088Z,98369.03
2023-01-15T00:31:03.954Z,98371.73
2023-01-15T00:34:20.548Z,98372.42
2023-01-15T00:37:36.674Z,98370.47
2023-01-15T00:40:53.763Z,98365.26
2023-01-15T00:44:10.277Z,98356.34
2023-01-15T00:47:26.630Z,98355.44
2023-01-15T00:50:42.765Z,98353.34
2023-01-15T00:53:58.998Z,98346.50
2023-01-15T00:57:16.191Z,98335.02
2023-01-15T01:00:32.768Z,98323.74
2023-01-15T01:03:49.771Z,98320.14
2023-01-15T01:07:05.932Z,98314.25
2023-01-15T01:10:21.718Z,98302.79
2023-01-15T01:13:38.428Z,98292.13
2023-01-15T01:16:55.344Z,98296.41
2023-01-15T01:20:15.402Z,98290.48
2023-01-15T01:23:33.491Z,98296.59
2023-01-15T01:26:51.449Z,98290.52
2023-01-15T01:30:09.203Z,98280.50
2023-01-15T01:33:25.452Z,98284.30
2023-01-15T01:36:44.986Z,98271.80
2023-01-15T01:40:01.239Z,98262.57
2023-01-15T01:43:26.971Z,98252.88
2023-01-15T01:46:44.702Z,98244.63
2023-01-15T01:50:05.726Z,98242.67
2023-01-15T01:53:29.105Z,98229.50
2023-01-15T01:56:46.377Z,98217.95
2023-01-15T02:00:05.862Z,98223.39
2023-01-15T02:03:25.818Z,98213.18
2023-01-15T02:06:44.008Z,98202.50
2023-01-15T02:10:01.761Z,98204.12
2023-01-15T02:13:23.881Z,98199.69
2023-01-15T02:16:45.539Z,98208.08
2023-01-15T02:20:07.574Z,98200.98
2023-01-15T02:24:08.849Z,98197.20
2023-01-15T02:27:29.488Z,98197.02
2023-01-15T02:30:49.887Z,98197.36
2023-01-15T02:34:11.226Z,98194.88
2023-01-15T02:37:32.635Z,98195.54
2023-01-15T02:40:50.387Z,98186.83
2023-01-15T02:44:11.051Z,98191.42
2023-01-15T02:47:33.274Z,98190.26
2023-01-15T02:50:54.490Z,98190.39
2023-01-15T02:54:17.650Z,98191.38
2023-01-15T02:57:38.574Z,98180.51
2023-01-15T03:01:01.238Z,98188.56
2023-01-15T03:04:25.061Z,98189.41
2023-01-15T03:07:48.227Z,98190.88
2023-01-15T03:11:11.487Z,98189.05
2023-01-15T03:14:35.105Z,98187.75
2023-01-15T03:17:55.654Z,98175.74
2023-01-15T03:21:16.029Z,98182.00
2023-01-15T03:24:41.455Z,98173.44
2023-01-15T03:28:00.676Z,98167.03
2023-01-15T03:31:18.593Z,98171.46
2023-01-15T03:34:42.767Z,98171.95
2023-01-15T03:38:00.558Z,98167.03
2023-01-15T03:41:27.010Z,98161.77
2023-01-15T03:44:52.675Z,98174.27
2023-01-15T03:48:14.649Z,98170.48
2023-01-15T03:51:37.461Z,98162.22
2023-01-15T03:55:01.682Z,98153.33
2023-01-15T03:58:23.116Z,98147.73
2023-01-15T04:01:43.642Z,98154.65
2023-01-15T04:05:01.782Z,98138.84
2023-01-15T04:08:20.476Z,98134.86
2023-01-15T04:11:38.688Z,98135.34
2023-01-15T04:14:56.110Z,98133.51
2023-01-15T04:18:12.356Z,98126.08
2023-01-15T04:21:29.700Z,98122.46
2023-01-15T04:24:46.984Z,98112.91
2023-01-15T04:28:06.480Z,98098.92
2023-01-15T04:31:23.496Z,98097.27
2023-01-15T04:34:40.749Z,98082.63
2023-01-15T04:37:58.781Z,98075.72
2023-01-15T04:41:30.024Z,98076.38
2023-01-15T04:44:47.894Z,98079.16
2023-01-15T04:48:04.563Z,98067.45
2023-01-15T04:51:21.386Z,98061.66
2023-01-15T04:54:38.296Z,98063.49
2023-01-15T04:57:56.683Z,98060.86
2023-01-15T05:01:17.390Z,98053.24
2023-01-15T05:04:34.495Z,98046.98
2023-01-15T05:07:56.457Z,98031.97
2023-01-15T05:11:15.767Z,98046.98
2023-01-15T05:14:33.059Z,98038.70
2023-01-15T05:17:49.368Z,98029.00
2023-01-15T05:21:06.255Z,98026.70
2023-01-15T05:25:01.173Z,98028.16
2023-01-15T05:28:49.540Z,98019.63
2023-01-15T05:32:09.705Z,98009.09
2023-01-15T05:35:26.813Z,97997.19
2023-01-15T05:38:43.941Z,98009.84
2023-01-15T05:42:00.399Z,98006.84
2023-01-15T05:45:19.654Z,98002.41
2023-01-15T05:48:37.576Z,97997.76
2023-01-15T05:51:55.539Z,97998.04
2023-01-15T05:55:12.959Z,97985.14
2023-01-15T05:58:32.164Z,97977.88
2023-01-15T06:01:48.669Z,97977.70
2023-01-15T06:05:06.584Z,97979.80
2023-01-15T06:08:23.458Z,97963.64
2023-01-15T06:14:46.076Z,97962.46
2023-01-15T06:18:02.762Z,97971.64
2023-01-15T06:21:25.627Z,97978.83
2023-01-15T06:24:42.115Z,97969.92
2023-01-15T06:28:06.986Z,97980.30
2023-01-15T06:31:27.615Z,97979.30
2023-01-15T06:34:46.236Z,97974.30
2023-01-15T06:38:03.135Z,97963.55
2023-01-15T06:41:46.269Z,97964.85
2023-01-15T06:45:41.822Z,97971.58
2023-01-15T06:49:19.481Z,97979.66
2023-01-15T06:52:37.597Z,97977.94
2023-01-15T06:55:54.029Z,97979.58
2023-01-15T06:59:13.066Z,97968.03
2023-01-15T07:02:29.735Z,97961.38
2023-01-15T07:05:49.770Z,97971.75
2023-01-15T07:09:19.413Z,97968.30
2023-01-15T07:12:37.683Z,97970.40
2023-01-15T07:15:54.062Z,97956.02
2023-01-15T07:19:11.258Z,97958.66
2023-01-15T07:22:27.521Z,97959.92
2023-01-15T07:25:43.823Z,97959.57
2023-01-15T07:29:00.635Z,97964.47
2023-01-15T07:32:17.700Z,97963.66
2023-01-15T07:35:36.093Z,97968.11
2023-01-15T07:38:53.023Z,97962.02
2023-01-15T07:42:23.976Z,97971.39
2023-01-15T07:46:02.802Z,97955.01
2023-01-15T07:49:35.505Z,97975.09
2023-01-15T07:52:53.640Z,97965.83
2023-01-15T07:56:11.900Z,97958.91
2023-01-15T07:59:28.840Z,97975.39
2023-01-15T08:02:46.851Z,97967.47
2023-01-15T08:06:03.579Z,97966.64
2023-01-15T08:09:21.085Z,97967.89
2023-01-15T08:12:51.489Z,97956.79
2023-01-15T08:16:08.073Z,97960.88
2023-01-15T08:19:25.928Z,97948.13
2023-01-15T08:22:45.060Z,97958.41
2023-01-15T08:26:01.844Z,97952.83
2023-01-15T08:29:18.537Z,97964.15
2023-01-15T08:32:35.283Z,97954.47
2023-01-15T08:35:52.315Z,97949.66
2023-01-15T08:39:09.310Z,97942.19
2023-01-15T08:42:26.066Z,97947.91
2023-01-15T08:45:42.875Z,97953.80
2023-01-15T08:48:59.755Z,97937.95
2023-01-15T08:52:16.487Z,97937.78
2023-01-15T08:55:34.959Z,97937.59
2023-01-15T08:58:53.476Z,97940.87
2023-01-15T09:02:11.564Z,97939.67
2023-01-15T09:05:29.220Z,97928.66
2023-01-15T09:08:46.190Z,97918.08
2023-01-15T09:12:02.824Z,97925.17
2023-01-15T09:15:21.150Z,97926.81
2023-01-15T09:18:37.891Z,97925.38
2023-01-15T09:21:57.317Z,97919.28
2023-01-15T09:25:17.129Z,97905.67
2023-01-15T09:28:34.853Z,97892.45
2023-01-15T09:31:51.952Z,97906.67
2023-01-15T09:35:08.607Z,97894.86
2023-01-15T09:38:27.956Z,97895.66
2023-01-15T09:42:15.415Z,97890.38
2023-01-15T09:45:37.230Z,97892.02
2023-01-15T09:49:03.178Z,97898.74
2023-01-15T09:52:27.648Z,97892.45
2023-01-15T09:55:48.463Z,97894.90
2023-01-15T09:59:11.395Z,97882.13
2023-01-15T10:02:36.024Z,97904.70
2023-01-15T10:05:58.777Z,97878.72
2023-01-15T10:09:21.753Z,97885.27
2023-01-15T10:12:41.523Z,97894.45
2023-01-15T10:15:58.550Z,97872.89
2023-01-15T10:19:19.005Z,97859.88
2023-01-15T10:23:03.655Z,97872.09
2023-01-15T10:26:31.246Z,97870.25
2023-01-15T10:29:52.269Z,97877.81
2023-01-15T10:33:14.379Z,97877.41
2023-01-15T10:36:36.578Z,97874.40
2023-01-15T10:39:58.799Z,97872.19
2023-01-15T10:43:23.868Z,97867.70
2023-01-15T10:46:44.791Z,97886.84
2023-01-15T10:50:04.549Z,97879.72
2023-01-15T10:53:23.040Z,97874.44
2023-01-15T10:56:48.898Z,97871.59
2023-01-15T11:00:10.173Z,97873.63
2023-01-15T11:03:32.094Z,97864.69
2023-01-15T11:06:49.012Z,97861.20
2023-01-15T11:10:08.003Z,97853.07
2023-01-15T11:13:44.881Z,97842.89
2023-01-15T11:17:15.950Z,97833.73
2023-01-15T11:20:38.788Z,97828.23
2023-01-15T11:23:56.741Z,97827.60
2023-01-15T11:27:13.965Z,97829.38
2023-01-15T11:30:40.287Z,97823.09
2023-01-15T11:34:06.800Z,97833.23
2023-01-15T11:37:23.093Z,97823.43
2023-01-15T11:40:40.112Z,97829.48
2023-01-15T11:44:19.034Z,97820.13
2023-01-15T11:47:49.216Z,97824.17
2023-01-15T11:51:12.076Z,97823.73
2023-01-15T11:54:28.271Z,97836.91
2023-01-15T11:57:46.736Z,97815.70
2023-01-15T12:01:04.575Z,97811.34
2023-01-15T12:04:45.388Z,97802.10
2023-01-15T12:08:04.975Z,97803.26
2023-01-15T12:11:57.853Z,97779.88
2023-01-15T12:15:37.330Z,97788.05
2023-01-15T12:19:07.069Z,97769.47
2023-01-15T12:22:34.685Z,97771.22
2023-01-15T12:26:02.529Z,97752.97
2023-01-15T12:29:25.021Z,97753.60
2023-01-15T12:32:46.920Z,97755.16
2023-01-15T12:36:10.173Z,97750.17
2023-01-15T12:39:32.870Z,97750.03
2023-01-15T12:43:12.423Z,97739.11
2023-01-15T12:46:33.752Z,97733.47
2023-01-15T12:49:55.431Z,97731.09
2023-01-15T12:53:18.233Z,97725.86
2023-01-15T12:56:41.976Z,97717.20
2023-01-15T13:00:03.583Z,97721.16
2023-01-15T13:03:32.767Z,97712.54
2023-01-15T13:06:52.784Z,97711.09
2023-01-15T13:10:17.849Z,97702.19
2023-01-15T13:13:39.171Z,97689.89
2023-01-15T13:17:00.949Z,97691.64
2023-01-15T13:20:41.251Z,97689.89
2023-01-15T13:24:11.359Z,97685.67
2023-01-15T13:27:40.469Z,97680.04
2023-01-15T13:31:12.063Z,97677.65
2023-01-15T13:34:35.014Z,97674.45
2023-01-15T13:37:55.654Z,97673.02
2023-01-15T13:41:15.942Z,97683.38
2023-01-15T13:44:44.865Z,97668.98
2023-01-15T13:48:13.081Z,97665.39
2023-01-15T13:51:39.880Z,97669.87
2023-01-15T13:54:56.922Z,97664.39
2023-01-15T13:58:28.256Z,97671.67
2023-01-15T14:01:46.510Z,97664.03
2023-01-15T14:05:04.452Z,97663.83
2023-01-15T14:08:46.157Z,97673.80
2023-01-15T14:12:18.625Z,97666.32
2023-01-15T14:15:46.704Z,97671.80
2023-01-15T14:19:39.119Z,97672.88
2023-01-15T14:23:12.491Z,97669.41
2023-01-15T14:26:36.474Z,97653.40
2023-01-15T14:30:33.312Z,97650.56
2023-01-15T14:34:01.165Z,97648.92
2023-01-15T14:37:35.534Z,97652.36
2023-01-15T14:41:14.838Z,97645.08
2023-01-15T14:44:45.416Z,97651.56
2023-01-15T14:48:10.275Z,97653.13
2023-01-15T14:51:34.021Z,97636.86
2023-01-15T14:55:09.130Z,97635.05
2023-01-15T14:59:21.856Z,97640.09
2023-01-15T15:02:43.629Z,97638.65
2023-01-15T15:06:09.652Z,97628.45
2023-01-15T15:12:50.313Z,97626.82
2023-01-15T15:16:12.718Z,97627.45
2023-01-15T15:19:36.642Z,97627.22
2023-01-15T15:22:55.521Z,97629.22
2023-01-15T15:26:24.672Z,97624.38
2023-01-15T15:29:41.068Z,97628.41
2023-01-15T15:33:00.101Z,97622.13
2023-01-15T15:36:19.747Z,97614.39
2023-01-15T15:39:48.715Z,97626.02
2023-01-15T15:43:25.853Z,97620.17
2023-01-15T15:47:04.939Z,97624.81
2023-01-15T15:50:32.662Z,97621.81
2023-01-15T15:57:31.297Z,97628.89
2023-01-15T16:01:12.284Z,97630.73
2023-01-15T16:04:32.733Z,97621.42
2023-01-15T16:07:49.279Z,97626.65
2023-01-15T16:11:11.301Z,97621.61
2023-01-15T16:14:29.825Z,97618.54
2023-01-15T16:17:49.663Z,97621.61
2023-01-15T16:21:07.204Z,97625.70
2023-01-15T16:24:37.544Z,97631.77
2023-01-15T16:27:57.818Z,97638.49
2023-01-15T16:31:14.503Z,97629.77
2023-01-15T16:34:39.694Z,97634.48
2023-01-15T16:38:03.619Z,97637.13
2023-01-15T16:41:35.181Z,97635.09
2023-01-15T16:45:14.972Z,97642.84
2023-01-15T16:48:48.511Z,97645.65
2023-01-15T16:52:19.040Z,97649.13
2023-01-15T16:55:56.938Z,97652.56
2023-01-15T16:59:18.137Z,97656.20
2023-01-15T17:02:40.727Z,97660.24
2023-01-15T17:06:01.658Z,97670.16
2023-01-15T17:09:41.128Z,97670.48
2023-01-15T17:13:01.540Z,97681.78
2023-01-15T17:16:29.274Z,97681.38
2023-01-15T17:19:46.071Z,97697.95
2023-01-15T17:23:23.969Z,97707.41
2023-01-15T17:26:33.760Z,97712.24
2023-01-15T17:29:51.201Z,97736.37
2023-01-15T17:33:10.236Z,97771.03
2023-01-15T17:36:27.099Z,97790.22
2023-01-15T17:39:44.205Z,97793.51
2023-01-15T17:43:00.943Z,97807.14
2023-01-15T17:46:20.690Z,97819.49
2023-01-15T17:49:38.827Z,97831.59
2023-01-15T17:52:56.261Z,97839.39
2023-01-15T17:56:29.007Z,97855.77
2023-01-15T18:00:09.631Z,97855.92
2023-01-15T18:03:44.610Z,97869.66
2023-01-15T18:07:04.012Z,97874.27
2023-01-15T18:10:23.472Z,97878.27
2023-01-15T18:13:37.525Z,97880.26
2023-01-15T18:16:54.151Z,97891.97
2023-01-15T18:20:11.367Z,97892.50
2023-01-15T18:23:28.419Z,97893.14
2023-01-15T18:26:49.467Z,97904.73
2023-01-15T18:30:06.294Z,97903.64
2023-01-15T18:33:22.779Z,97909.38
2023-01-15T18:36:44.211Z,97907.45
2023-01-15T18:40:00.764Z,97919.78
2023-01-15T18:43:31.641Z,97918.97
2023-01-15T18:46:51.121Z,97920.25
2023-01-15T18:50:07.565Z,97920.14
2023-01-15T18:53:23.913Z,97926.30
2023-01-15T18:56:47.998Z,97920.66
2023-01-15T19:00:06.611Z,97927.10
2023-01-15T19:03:26.753Z,97934.13
2023-01-15T19:06:48.502Z,97931.67
2023-01-15T19:10:05.252Z,97928.92
2023-01-15T19:13:21.912Z,97933.34
2023-01-15T19:16:52.328Z,97937.45
2023-01-15T19:20:09.311Z,97945.23
2023-01-15T19:23:27.557Z,97951.47
2023-01-15T19:26:46.019Z,97951.36
2023-01-15T19:30:03.032Z,97943.76
2023-01-15T19:33:33.083Z,97950.52
2023-01-15T19:36:54.505Z,97957.24
2023-01-15T19:40:12.521Z,97966.78
2023-01-15T19:43:43.540Z,97963.50
2023-01-15T19:47:22.726Z,97966.66
2023-01-15T19:50:44.162Z,97967.83
2023-01-15T19:54:03.947Z,97953.70
2023-01-15T19:57:22.436Z,97958.61
2023-01-15T20:00:43.217Z,97960.81
2023-01-15T20:04:03.176Z,97960.98
2023-01-15T20:07:20.509Z,97962.60
2023-01-15T20:10:40.185Z,97966.07
2023-01-15T20:14:05.438Z,97970.98
2023-01-15T20:17:37.752Z,97970.19
2023-01-15T20:20:59.422Z,97976.78
2023-01-15T20:24:16.486Z,97975.80
2023-01-15T20:27:35.383Z,97975.80
2023-01-15T20:30:54.309Z,97979.91
2023-01-15T20:34:10.978Z,97987.79
2023-01-15T20:37:29.606Z,97982.05
2023-01-15T20:40:47.792Z,97975.98
2023-01-15T20:44:18.383Z,97972.06
2023-01-15T20:47:49.956Z,97976.52
2023-01-15T20:51:07.684Z,97977.36
2023-01-15T20:54:24.701Z,97989.03
2023-01-15T20:57:44.363Z,97985.56
2023-01-15T21:01:03.225Z,97969.97
2023-01-15T21:04:19.948Z,97974.41
2023-01-15T21:07:36.382Z,97963.06
2023-01-15T21:10:56.011Z,97975.22
2023-01-15T21:14:12.873Z,97969.33
2023-01-15T21:17:29.260Z,97974.23
2023-01-15T21:20:46.683Z,97973.11
2023-01-15T21:24:04.919Z,97977.84
2023-01-15T21:27:21.447Z,97966.52
2023-01-15T21:30:40.963Z,97971.28
2023-01-15T21:34:04.256Z,97973.27
2023-01-15T21:37:23.077Z,97977.05
2023-01-15T21:40:57.852Z,97980.83
2023-01-15T21:44:42.938Z,97973.58
2023-01-15T21:49:17.774Z,97975.08
2023-01-15T21:53:18.179Z,97978.20
2023-01-15T21:57:22.638Z,97971.94
2023-01-15T22:01:34.087Z,97969.66
2023-01-15T22:05:04.611Z,97976.39
2023-01-15T22:08:32.232Z,97971.94
2023-01-15T22:11:49.937Z,97970.47
2023-01-15T22:15:06.933Z,97969.16
2023-01-15T22:18:23.180Z,97968.98
2023-01-15T22:21:40.054Z,97979.49
2023-01-15T22:24:56.397Z,97975.56
2023-01-15T22:28:12.718Z,97961.27
2023-01-15T22:31:31.105Z,97966.88
2023-01-15T22:34:47.943Z,97964.39
2023-01-15T22:38:04.342Z,97965.53
2023-01-15T22:41:25.866Z,97964.06
2023-01-15T22:44:44.201Z,97955.20
2023-01-15T22:48:00.472Z,97951.42
2023-01-15T22:51:17.060Z,97947.32
2023-01-15T22:54:33.764Z,97948.80
2023-01-15T22:57:50.134Z,97937.80
2023-01-15T23:01:06.619Z,97945.67
2023-01-15T23:04:26.067Z,97934.53
2023-01-15T23:07:41.645Z,97937.14
2023-01-15T23:10:57.790Z,97945.02
2023-01-15T23:14:16.463Z,97936.66
2023-01-15T23:17:32.778Z,97940.09
2023-01-15T23:20:50.146Z,97939.43
2023-01-15T23:24:08.315Z,97930.91
2023-01-15T23:27:24.717Z,97939.78
2023-01-15T23:30:40.599Z,97940.09
2023-01-15T23:33:57.281Z,97941.25
2023-01-15T23:37:13.494Z,97929.91
2023-01-15T23:40:39.365Z,97930.41
2023-01-15T23:44:11.814Z,97934.34
2023-01-15T23:47:28.057Z,97935.18
2023-01-15T23:50:44.381Z,97935.18
2023-01-15T23:54:01.905Z,97931.08
2023-01-15T23:57:21.532Z,97929.92
